createdAt,value
2022-10-30T00:01:15.846Z,13.50
2022-10-30T00:03:42.903Z,13.50
2022-10-30T00:06:09.962Z,13.50
2022-10-30T00:08:37.119Z,13.50
2022-10-30T00:11:08.983Z,13.50
2022-10-30T00:13:36.973Z,13.40
2022-10-30T00:16:07.178Z,13.40
2022-10-30T00:18:39.549Z,13.40
2022-10-30T00:21:08.906Z,13.40
2022-10-30T00:23:36.442Z,13.30
2022-10-30T00:26:05.304Z,13.30
2022-10-30T00:28:32.546Z,13.20
2022-10-30T00:31:04.101Z,13.20
2022-10-30T00:33:31.863Z,13.20
2022-10-30T00:35:59.644Z,13.20
2022-10-30T00:38:26.535Z,13.10
2022-10-30T00:40:53.640Z,13.10
2022-10-30T00:43:37.207Z,13.10
2022-10-30T00:46:31.160Z,13.10
2022-10-30T00:49:09.921Z,13.00
2022-10-30T00:51:38.609Z,13.00
2022-10-30T00:54:08.201Z,13.00
2022-10-30T00:56:36.559Z,13.00
2022-10-30T00:59:15.819Z,12.90
2022-10-30T01:01:44.879Z,12.90
2022-10-30T01:04:12.835Z,12.80
2022-10-30T01:06:43.260Z,12.80
2022-10-30T01:09:10.473Z,12.80
2022-10-30T01:11:37.455Z,12.80
2022-10-30T01:14:08.563Z,12.80
2022-10-30T01:16:50.561Z,12.70
2022-10-30T01:19:42.603Z,12.80
2022-10-30T01:22:40.708Z,12.70
2022-10-30T01:25:45.120Z,12.70
2022-10-30T01:28:36.223Z,12.70
2022-10-30T01:31:34.360Z,12.60
2022-10-30T01:34:10.401Z,12.60
2022-10-30T01:36:57.336Z,12.60
2022-10-30T01:39:28.192Z,12.60
2022-10-30T01:41:55.174Z,12.60
2022-10-30T01:44:30.698Z,12.60
2022-10-30T01:47:00.716Z,12.50
2022-10-30T01:49:27.573Z,12.50
2022-10-30T01:52:00.451Z,12.50
2022-10-30T01:54:33.311Z,12.50
2022-10-30T01:57:09.067Z,12.50
2022-10-30T01:59:51.841Z,12.50
2022-10-30T02:02:19.310Z,12.50
2022-10-30T02:04:46.356Z,12.40
2022-10-30T02:07:13.492Z,12.40
2022-10-30T02:09:40.617Z,12.40
2022-10-30T02:12:08.245Z,12.40
2022-10-30T02:14:43.435Z,12.40
2022-10-30T02:17:11.774Z,12.30
2022-10-30T02:19:38.835Z,12.30
2022-10-30T02:22:06.448Z,12.30
2022-10-30T02:24:33.694Z,12.30
2022-10-30T02:27:01.232Z,12.30
2022-10-30T02:29:28.342Z,12.30
2022-10-30T02:31:55.290Z,12.30
2022-10-30T02:34:22.269Z,12.20
2022-10-30T02:36:49.513Z,12.20
2022-10-30T02:39:16.387Z,12.20
2022-10-30T02:41:43.296Z,12.20
2022-10-30T02:44:10.253Z,12.20
2022-10-30T02:46:37.390Z,12.10
2022-10-30T02:49:04.328Z,12.10
2022-10-30T02:51:32.523Z,12.10
2022-10-30T02:54:00.463Z,12.10
2022-10-30T02:56:27.554Z,12.00
2022-10-30T02:58:56.427Z,12.00
2022-10-30T03:01:23.563Z,12.00
2022-10-30T03:03:51.159Z,11.90
2022-10-30T03:06:18.490Z,11.90
2022-10-30T03:08:45.616Z,11.90
2022-10-30T03:11:17.594Z,11.90
2022-10-30T03:13:46.242Z,11.80
2022-10-30T03:16:22.063Z,11.80
2022-10-30T03:18:49.621Z,11.80
2022-10-30T03:21:19.910Z,11.80
2022-10-30T03:23:46.858Z,11.70
2022-10-30T03:26:14.023Z,11.70
2022-10-30T03:28:40.992Z,11.70
2022-10-30T03:31:10.061Z,11.70
2022-10-30T03:33:37.639Z,11.70
2022-10-30T03:36:06.489Z,11.70
2022-10-30T03:38:33.850Z,11.70
2022-10-30T03:41:01.251Z,11.70
2022-10-30T03:43:28.285Z,11.70
2022-10-30T03:45:56.607Z,11.70
2022-10-30T03:48:25.987Z,11.70
2022-10-30T03:50:54.300Z,11.60
2022-10-30T03:53:21.708Z,11.60
2022-10-30T03:55:48.657Z,11.60
2022-10-30T03:58:15.605Z,11.60
2022-10-30T04:00:42.532Z,11.60
2022-10-30T04:03:10.190Z,11.60
2022-10-30T04:05:37.697Z,11.50
2022-10-30T04:08:07.676Z,11.50
2022-10-30T04:10:35.601Z,11.50
2022-10-30T04:13:04.994Z,11.50
2022-10-30T04:15:32.243Z,11.50
2022-10-30T04:17:59.592Z,11.40
2022-10-30T04:20:28.063Z,11.40
2022-10-30T04:22:59.756Z,11.40
2022-10-30T04:25:27.660Z,11.40
2022-10-30T04:27:55.215Z,11.50
2022-10-30T04:30:24.227Z,11.50
2022-10-30T04:32:53.483Z,11.50
2022-10-30T04:35:23.016Z,11.50
2022-10-30T04:38:10.760Z,11.50
2022-10-30T04:40:39.839Z,11.50
2022-10-30T04:43:07.907Z,11.40
2022-10-30T04:45:35.183Z,11.40
2022-10-30T04:48:20.190Z,11.40
2022-10-30T04:50:47.206Z,11.40
2022-10-30T04:53:19.005Z,11.40
2022-10-30T04:55:45.983Z,11.40
2022-10-30T04:58:13.805Z,11.40
2022-10-30T05:00:41.189Z,11.30
2022-10-30T05:03:10.463Z,11.30
2022-10-30T05:05:37.365Z,11.30
2022-10-30T05:08:04.412Z,11.30
2022-10-30T05:10:31.321Z,11.40
2022-10-30T05:13:00.170Z,11.40
2022-10-30T05:15:27.250Z,11.40
2022-10-30T05:17:54.202Z,11.40
2022-10-30T05:20:21.581Z,11.40
2022-10-30T05:22:59.075Z,11.40
2022-10-30T05:25:26.432Z,11.30
2022-10-30T05:28:00.665Z,11.30
2022-10-30T05:30:29.206Z,11.30
2022-10-30T05:33:10.474Z,11.30
2022-10-30T05:35:38.481Z,11.30
2022-10-30T05:38:06.932Z,11.30
2022-10-30T05:40:34.732Z,11.30
2022-10-30T05:43:02.224Z,11.30
2022-10-30T05:45:29.230Z,11.30
2022-10-30T05:47:58.683Z,11.30
2022-10-30T05:50:27.515Z,11.30
2022-10-30T05:52:58.309Z,11.30
2022-10-30T05:55:25.297Z,11.30
2022-10-30T05:57:59.712Z,11.30
2022-10-30T06:00:28.971Z,11.20
2022-10-30T06:03:04.070Z,11.20
2022-10-30T06:05:32.950Z,11.10
2022-10-30T06:08:00.118Z,11.10
2022-10-30T06:10:27.946Z,11.20
2022-10-30T06:13:02.713Z,11.20
2022-10-30T06:15:30.732Z,11.20
2022-10-30T06:17:58.483Z,11.30
2022-10-30T06:20:28.528Z,11.30
2022-10-30T06:22:56.478Z,11.30
2022-10-30T06:25:24.177Z,11.40
2022-10-30T06:27:51.316Z,11.30
2022-10-30T06:30:18.378Z,11.40
2022-10-30T06:32:45.340Z,11.40
2022-10-30T06:35:12.455Z,11.40
2022-10-30T06:37:45.310Z,11.40
2022-10-30T06:40:12.592Z,11.50
2022-10-30T06:42:47.094Z,11.50
2022-10-30T06:45:15.286Z,11.50
2022-10-30T06:47:42.878Z,11.60
2022-10-30T06:50:12.687Z,11.50
2022-10-30T06:52:39.617Z,11.60
2022-10-30T06:55:07.594Z,11.60
2022-10-30T06:57:34.579Z,11.60
2022-10-30T07:00:02.089Z,11.70
2022-10-30T07:02:29.170Z,11.70
2022-10-30T07:04:56.134Z,11.70
2022-10-30T07:07:23.082Z,11.70
2022-10-30T07:09:50.130Z,11.70
2022-10-30T07:12:17.398Z,11.70
2022-10-30T07:14:44.320Z,11.70
2022-10-30T07:17:11.301Z,11.70
2022-10-30T07:19:38.233Z,11.70
2022-10-30T07:22:05.203Z,11.70
2022-10-30T07:24:32.182Z,11.70
2022-10-30T07:26:59.087Z,11.70
2022-10-30T07:29:25.962Z,11.70
2022-10-30T07:32:03.917Z,11.80
2022-10-30T07:34:31.605Z,11.80
2022-10-30T07:36:58.654Z,11.80
2022-10-30T07:39:25.714Z,11.80
2022-10-30T07:41:52.629Z,11.90
2022-10-30T07:44:19.601Z,11.90
2022-10-30T07:46:46.508Z,11.90
2022-10-30T07:49:13.469Z,11.90
2022-10-30T07:51:40.466Z,11.90
2022-10-30T07:54:07.352Z,11.90
2022-10-30T07:56:34.215Z,12.00
2022-10-30T07:59:01.170Z,12.00
2022-10-30T08:01:28.193Z,12.00
2022-10-30T08:03:55.220Z,12.00
2022-10-30T08:06:24.778Z,12.00
2022-10-30T08:08:54.068Z,12.00
2022-10-30T08:11:21.080Z,12.00
2022-10-30T08:13:48.031Z,11.90
2022-10-30T08:16:15.065Z,11.90
2022-10-30T08:18:43.389Z,11.90
2022-10-30T08:21:10.583Z,11.90
2022-10-30T08:23:37.582Z,11.90
2022-10-30T08:26:05.553Z,11.90
2022-10-30T08:28:33.183Z,11.90
2022-10-30T08:31:01.627Z,11.90
2022-10-30T08:33:29.160Z,11.90
2022-10-30T08:35:58.646Z,11.90
2022-10-30T08:38:26.717Z,11.90
2022-10-30T08:40:53.685Z,11.90
2022-10-30T08:43:20.915Z,12.00
2022-10-30T08:45:48.116Z,12.00
2022-10-30T08:48:18.130Z,12.00
2022-10-30T08:50:45.340Z,12.10
2022-10-30T08:53:14.537Z,12.10
2022-10-30T08:55:42.097Z,12.10
2022-10-30T08:58:09.289Z,12.10
2022-10-30T09:00:36.352Z,12.10
2022-10-30T09:03:04.021Z,12.10
2022-10-30T09:05:31.240Z,12.10
2022-10-30T09:08:02.207Z,12.10
2022-10-30T09:10:30.733Z,12.10
2022-10-30T09:12:59.125Z,12.10
2022-10-30T09:15:29.011Z,12.10
2022-10-30T09:18:01.600Z,12.20
2022-10-30T09:20:29.581Z,12.20
2022-10-30T09:22:56.809Z,12.20
2022-10-30T09:25:23.942Z,12.20
2022-10-30T09:27:50.858Z,12.30
2022-10-30T09:30:17.846Z,12.30
2022-10-30T09:32:44.745Z,12.40
2022-10-30T09:35:11.971Z,12.40
2022-10-30T09:37:40.230Z,12.40
2022-10-30T09:40:08.237Z,12.40
2022-10-30T09:42:46.841Z,12.40
2022-10-30T09:45:29.981Z,12.40
2022-10-30T09:48:37.080Z,12.50
2022-10-30T09:51:15.390Z,12.50
2022-10-30T09:54:19.653Z,12.60
2022-10-30T09:56:59.427Z,12.70
2022-10-30T09:59:52.635Z,12.70
2022-10-30T10:02:19.568Z,12.70
2022-10-30T10:05:03.894Z,12.80
2022-10-30T10:07:35.476Z,12.80
2022-10-30T10:10:11.533Z,12.90
2022-10-30T10:12:50.914Z,12.90
2022-10-30T10:15:43.482Z,13.00
2022-10-30T10:18:35.526Z,13.10
2022-10-30T10:21:10.777Z,13.10
2022-10-30T10:23:52.420Z,13.20
2022-10-30T10:26:37.901Z,13.20
2022-10-30T10:29:26.004Z,13.30
2022-10-30T10:32:17.959Z,13.30
2022-10-30T10:35:02.816Z,13.40
2022-10-30T10:37:46.010Z,13.30
2022-10-30T10:40:16.682Z,13.40
2022-10-30T10:42:49.746Z,13.50
2022-10-30T10:45:37.437Z,13.50
2022-10-30T10:48:45.747Z,13.60
2022-10-30T10:51:30.089Z,13.60
2022-10-30T10:54:08.986Z,13.60
2022-10-30T10:56:40.032Z,13.60
2022-10-30T10:59:21.412Z,13.60
2022-10-30T11:02:13.404Z,13.60
2022-10-30T11:04:43.532Z,13.50
2022-10-30T11:07:35.613Z,13.50
2022-10-30T11:10:02.490Z,13.50
2022-10-30T11:12:36.632Z,13.50
2022-10-30T11:15:18.633Z,13.50
2022-10-30T11:18:03.918Z,13.70
2022-10-30T11:20:40.085Z,13.70
2022-10-30T11:23:40.215Z,13.80
2022-10-30T11:26:34.430Z,13.70
2022-10-30T11:29:18.641Z,13.80
2022-10-30T11:31:47.216Z,13.80
2022-10-30T11:34:17.082Z,13.70
2022-10-30T11:36:51.810Z,13.70
2022-10-30T11:39:24.783Z,13.70
2022-10-30T11:42:03.337Z,13.60
2022-10-30T11:44:42.513Z,13.60
2022-10-30T11:47:11.783Z,13.60
2022-10-30T11:49:47.395Z,13.60
2022-10-30T11:52:18.046Z,13.60
2022-10-30T11:54:49.305Z,13.60
2022-10-30T11:57:30.447Z,13.60
2022-10-30T12:00:03.794Z,13.60
2022-10-30T12:02:41.539Z,13.70
2022-10-30T12:05:34.357Z,13.70
2022-10-30T12:08:07.343Z,13.80
2022-10-30T12:10:57.062Z,13.90
2022-10-30T12:13:25.013Z,13.90
2022-10-30T12:16:07.217Z,14.00
2022-10-30T12:18:34.490Z,14.30
2022-10-30T12:21:03.491Z,14.50
2022-10-30T12:23:31.966Z,14.70
2022-10-30T12:26:10.980Z,15.00
2022-10-30T12:28:39.346Z,14.80
2022-10-30T12:31:06.227Z,15.70
2022-10-30T12:33:36.386Z,17.00
2022-10-30T12:36:17.973Z,17.70
2022-10-30T12:38:47.727Z,18.70
2022-10-30T12:41:26.759Z,18.60
2022-10-30T12:43:58.807Z,18.80
2022-10-30T12:46:43.854Z,20.90
2022-10-30T12:49:20.156Z,20.80
2022-10-30T12:51:46.901Z,20.10
2022-10-30T12:54:23.089Z,19.50
2022-10-30T12:56:57.230Z,19.50
2022-10-30T12:59:29.820Z,19.60
2022-10-30T13:02:12.841Z,19.50
2022-10-30T13:04:45.053Z,20.20
2022-10-30T13:07:34.895Z,20.20
2022-10-30T13:10:10.968Z,18.50
2022-10-30T13:12:40.971Z,18.50
2022-10-30T13:15:28.913Z,17.70
2022-10-30T13:18:00.947Z,18.10
2022-10-30T13:20:29.851Z,20.10
2022-10-30T13:23:12.343Z,19.40
2022-10-30T13:25:43.377Z,18.10
2022-10-30T13:28:23.398Z,17.30
2022-10-30T13:31:15.794Z,16.80
2022-10-30T13:34:06.463Z,17.50
2022-10-30T13:36:50.782Z,17.70
2022-10-30T13:39:33.160Z,17.30
2022-10-30T13:42:20.265Z,17.30
2022-10-30T13:45:03.783Z,16.80
2022-10-30T13:48:21.403Z,15.90
2022-10-30T13:51:06.938Z,15.70
2022-10-30T13:53:36.804Z,15.50
2022-10-30T13:56:05.841Z,15.30
2022-10-30T13:58:40.883Z,14.90
2022-10-30T14:01:20.622Z,14.80
2022-10-30T14:04:10.556Z,14.80
2022-10-30T14:06:48.150Z,15.10
2022-10-30T14:09:30.042Z,15.60
2022-10-30T14:12:00.611Z,15.40
2022-10-30T14:14:30.914Z,15.30
2022-10-30T14:17:12.923Z,15.20
2022-10-30T14:20:08.771Z,15.30
2022-10-30T14:22:40.998Z,16.40
2022-10-30T14:25:16.161Z,17.50
2022-10-30T14:27:43.364Z,18.40
2022-10-30T14:30:20.501Z,17.90
2022-10-30T14:32:56.841Z,17.00
2022-10-30T14:35:35.324Z,17.10
2022-10-30T14:38:08.222Z,16.50
2022-10-30T14:40:53.535Z,15.90
2022-10-30T14:43:34.784Z,15.30
2022-10-30T14:46:17.485Z,15.20
2022-10-30T14:48:53.451Z,16.00
2022-10-30T14:51:23.733Z,17.00
2022-10-30T14:53:56.577Z,16.80
2022-10-30T14:56:45.201Z,16.70
2022-10-30T14:59:15.075Z,16.10
2022-10-30T15:01:54.416Z,15.70
2022-10-30T15:04:38.374Z,15.40
2022-10-30T15:07:41.395Z,15.30
2022-10-30T15:10:16.149Z,15.40
2022-10-30T15:12:49.876Z,15.20
2022-10-30T15:15:18.803Z,15.00
2022-10-30T15:17:52.859Z,14.70
2022-10-30T15:20:32.198Z,14.60
2022-10-30T15:23:04.003Z,14.50
2022-10-30T15:25:45.834Z,14.60
2022-10-30T15:28:34.368Z,14.60
2022-10-30T15:31:24.503Z,14.60
2022-10-30T15:33:54.406Z,14.40
2022-10-30T15:36:22.397Z,14.50
2022-10-30T15:39:11.575Z,14.40
2022-10-30T15:41:46.768Z,14.30
2022-10-30T15:46:52.089Z,14.20
2022-10-30T15:49:32.455Z,14.20
2022-10-30T15:52:00.997Z,14.10
2022-10-30T15:54:29.724Z,14.10
2022-10-30T15:59:52.759Z,14.10
2022-10-30T16:02:27.042Z,14.00
2022-10-30T16:04:54.541Z,14.10
2022-10-30T16:07:27.125Z,14.00
2022-10-30T16:09:56.406Z,14.00
2022-10-30T16:12:28.324Z,14.00
2022-10-30T16:15:03.794Z,14.10
2022-10-30T16:17:30.774Z,14.10
2022-10-30T16:20:02.059Z,14.10
2022-10-30T16:22:33.919Z,14.00
2022-10-30T16:25:01.058Z,13.90
2022-10-30T16:27:27.995Z,13.90
2022-10-30T16:29:58.356Z,13.90
2022-10-30T16:32:36.332Z,13.90
2022-10-30T16:35:05.265Z,13.90
2022-10-30T16:37:43.397Z,13.80
2022-10-30T16:40:25.926Z,13.70
2022-10-30T16:42:59.921Z,13.70
2022-10-30T16:45:30.045Z,13.70
2022-10-30T16:48:09.195Z,13.70
2022-10-30T16:50:38.264Z,13.60
2022-10-30T16:53:18.430Z,13.60
2022-10-30T16:55:45.510Z,13.60
2022-10-30T16:58:17.292Z,13.50
2022-10-30T17:01:10.701Z,13.50
2022-10-30T17:03:41.300Z,13.50
2022-10-30T17:06:25.117Z,13.30
2022-10-30T17:08:54.189Z,13.30
2022-10-30T17:11:38.686Z,13.20
2022-10-30T17:14:25.988Z,13.30
2022-10-30T17:16:56.976Z,13.30
2022-10-30T17:19:30.099Z,13.20
2022-10-30T17:21:59.514Z,13.20
2022-10-30T17:24:33.766Z,13.20
2022-10-30T17:27:04.067Z,13.20
2022-10-30T17:29:37.057Z,13.20
2022-10-30T17:32:05.399Z,13.10
2022-10-30T17:34:37.517Z,13.20
2022-10-30T17:37:04.450Z,13.20
2022-10-30T17:39:31.439Z,13.10
2022-10-30T17:41:58.366Z,13.10
2022-10-30T17:44:26.217Z,13.10
2022-10-30T17:46:54.698Z,13.10
2022-10-30T17:49:30.816Z,13.10
2022-10-30T17:51:58.494Z,13.00
2022-10-30T17:54:25.833Z,12.90
2022-10-30T17:56:52.839Z,12.90
2022-10-30T17:59:19.737Z,13.00
2022-10-30T18:01:49.105Z,12.90
2022-10-30T18:04:21.026Z,12.90
2022-10-30T18:06:48.749Z,12.80
2022-10-30T18:09:15.983Z,12.80
2022-10-30T18:11:42.938Z,12.80
2022-10-30T18:14:11.540Z,12.80
2022-10-30T18:16:39.066Z,12.70
2022-10-30T18:19:10.870Z,12.80
2022-10-30T18:21:38.238Z,12.80
2022-10-30T18:24:12.724Z,12.80
2022-10-30T18:26:40.973Z,12.80
2022-10-30T18:29:09.070Z,12.80
2022-10-30T18:31:36.781Z,12.80
2022-10-30T18:34:06.247Z,12.80
2022-10-30T18:36:33.206Z,12.90
2022-10-30T18:39:00.184Z,12.90
2022-10-30T18:41:34.673Z,12.90
2022-10-30T18:44:02.654Z,12.90
2022-10-30T18:46:31.584Z,12.90
2022-10-30T18:48:58.998Z,12.90
2022-10-30T18:51:28.112Z,12.90
2022-10-30T18:53:57.030Z,12.90
2022-10-30T18:56:29.409Z,13.00
2022-10-30T18:59:02.116Z,12.90
2022-10-30T19:01:32.310Z,12.90
2022-10-30T19:04:02.290Z,13.00
2022-10-30T19:06:29.683Z,13.00
2022-10-30T19:08:56.625Z,13.00
2022-10-30T19:11:25.354Z,13.00
2022-10-30T19:13:54.218Z,13.00
2022-10-30T19:16:26.612Z,12.90
2022-10-30T19:18:54.051Z,12.90
2022-10-30T19:21:25.631Z,12.90
2022-10-30T19:23:54.039Z,12.90
2022-10-30T19:26:21.076Z,12.90
2022-10-30T19:28:48.112Z,12.90
2022-10-30T19:31:17.847Z,13.00
2022-10-30T19:33:45.283Z,13.00
2022-10-30T19:36:36.530Z,13.00
2022-10-30T19:39:10.248Z,13.00
2022-10-30T19:41:38.957Z,13.00
2022-10-30T19:44:06.143Z,12.90
2022-10-30T19:46:33.417Z,12.90
2022-10-30T19:49:00.757Z,12.90
2022-10-30T19:51:28.851Z,12.90
2022-10-30T19:53:57.263Z,12.90
2022-10-30T19:56:24.360Z,12.80
2022-10-30T19:58:56.753Z,12.80
2022-10-30T20:01:23.891Z,12.80
2022-10-30T20:03:52.185Z,12.80
2022-10-30T20:06:19.903Z,12.80
2022-10-30T20:08:46.862Z,12.80
2022-10-30T20:11:13.916Z,12.70
2022-10-30T20:13:41.377Z,12.70
2022-10-30T20:16:10.779Z,12.70
2022-10-30T20:18:44.178Z,12.60
2022-10-30T20:21:24.316Z,12.60
2022-10-30T20:23:54.590Z,12.60
2022-10-30T20:26:31.608Z,12.50
2022-10-30T20:29:04.329Z,12.50
2022-10-30T20:31:38.896Z,12.40
2022-10-30T20:34:21.092Z,12.40
2022-10-30T20:36:49.672Z,12.40
2022-10-30T20:39:16.605Z,12.40
2022-10-30T20:41:46.340Z,12.30
2022-10-30T20:44:16.920Z,12.30
2022-10-30T20:46:46.400Z,12.30
2022-10-30T20:49:18.215Z,12.30
2022-10-30T20:51:46.514Z,12.20
2022-10-30T20:54:13.610Z,12.20
2022-10-30T20:56:42.025Z,12.20
2022-10-30T20:59:14.279Z,12.20
2022-10-30T21:01:41.270Z,12.20
2022-10-30T21:04:08.248Z,12.20
2022-10-30T21:06:36.371Z,12.20
2022-10-30T21:09:03.332Z,12.20
2022-10-30T21:11:30.858Z,12.20
2022-10-30T21:13:58.531Z,12.20
2022-10-30T21:16:28.631Z,12.20
2022-10-30T21:18:56.007Z,12.20
2022-10-30T21:21:25.617Z,12.10
2022-10-30T21:23:59.241Z,12.10
2022-10-30T21:26:26.224Z,12.10
2022-10-30T21:28:53.290Z,12.10
2022-10-30T21:31:20.314Z,12.00
2022-10-30T21:33:47.391Z,12.00
2022-10-30T21:36:16.867Z,12.00
2022-10-30T21:38:47.090Z,12.00
2022-10-30T21:41:18.959Z,12.00
2022-10-30T21:43:51.227Z,12.00
2022-10-30T21:46:18.522Z,12.00
2022-10-30T21:48:45.441Z,12.00
2022-10-30T21:51:15.061Z,12.00
2022-10-30T21:53:42.832Z,12.00
2022-10-30T21:56:12.914Z,12.00
2022-10-30T21:58:40.161Z,11.90
2022-10-30T22:01:12.630Z,11.90
2022-10-30T22:03:39.520Z,11.90
2022-10-30T22:06:08.014Z,11.90
2022-10-30T22:08:35.430Z,11.80
2022-10-30T22:11:07.110Z,11.90
2022-10-30T22:13:34.229Z,11.80
2022-10-30T22:16:01.420Z,11.80
2022-10-30T22:18:28.920Z,11.80
2022-10-30T22:21:06.175Z,11.80
2022-10-30T22:23:34.282Z,11.70
2022-10-30T22:26:03.549Z,11.70
2022-10-30T22:28:32.263Z,11.70
2022-10-30T22:31:07.281Z,11.70
2022-10-30T22:33:34.843Z,11.80
2022-10-30T22:36:07.281Z,11.70
2022-10-30T22:38:35.486Z,11.70
2022-10-30T22:41:10.754Z,11.70
2022-10-30T22:43:37.773Z,11.70
2022-10-30T22:46:04.913Z,11.70
2022-10-30T22:48:32.693Z,11.70
2022-10-30T22:51:01.283Z,11.70
2022-10-30T22:53:29.608Z,11.70
2022-10-30T22:55:56.634Z,11.60
2022-10-30T22:58:28.934Z,11.60
2022-10-30T23:01:16.202Z,11.70
2022-10-30T23:03:44.020Z,11.60
2022-10-30T23:06:11.826Z,11.60
2022-10-30T23:08:38.882Z,11.60
2022-10-30T23:11:06.270Z,11.60
2022-10-30T23:13:34.462Z,11.50
2022-10-30T23:16:02.893Z,11.60
2022-10-30T23:18:29.927Z,11.50
2022-10-30T23:21:06.058Z,11.60
2022-10-30T23:23:40.005Z,11.60
2022-10-30T23:26:17.743Z,11.60
2022-10-30T23:28:45.625Z,11.60
2022-10-30T23:31:26.078Z,11.60
2022-10-30T23:33:56.021Z,11.60
2022-10-30T23:36:23.193Z,11.60
2022-10-30T23:39:17.031Z,11.60
2022-10-30T23:41:44.518Z,11.60
2022-10-30T23:44:14.017Z,11.60
2022-10-30T23:46:41.169Z,11.60
2022-10-30T23:49:08.224Z,11.60
2022-10-30T23:51:35.221Z,11.50
2022-10-30T23:54:02.234Z,11.50
2022-10-30T23:56:29.686Z,11.50
2022-10-30T23:58:57.421Z,11.50
